sensor_id;sensor_type;location;lat;lon;timestamp;P1;durP1;ratioP1;P2;durP2;ratioP2
67272;SDS011;54190;49.770;9.250;2023-02-16T00:02:46;84.43;;;18.93;;
67272;SDS011;54190;49.770;9.250;2023-02-16T00:05:17;120.60;;;19.57;;
67272;SDS011;54190;49.770;9.250;2023-02-16T00:07:49;97.77;;;19.30;;
67272;SDS011;54190;49.770;9.250;2023-02-16T00:10:15;83.00;;;18.30;;
67272;SDS011;54190;49.770;9.250;2023-02-16T00:12:41;42.03;;;17.80;;
67272;SDS011;54190;49.770;9.250;2023-02-16T00:15:25;93.53;;;19.70;;
67272;SDS011;54190;49.770;9.250;2023-02-16T00:17:51;99.10;;;19.53;;
67272;SDS011;54190;49.770;9.250;2023-02-16T00:20:18;104.53;;;20.73;;
67272;SDS011;54190;49.770;9.250;2023-02-16T00:22:44;35.63;;;16.40;;
67272;SDS011;54190;49.770;9.250;2023-02-16T00:25:10;44.50;;;19.10;;
67272;SDS011;54190;49.770;9.250;2023-02-16T00:27:36;88.27;;;20.67;;
67272;SDS011;54190;49.770;9.250;2023-02-16T00:30:05;78.17;;;18.77;;
67272;SDS011;54190;49.770;9.250;2023-02-16T00:32:39;37.50;;;17.93;;
67272;SDS011;54190;49.770;9.250;2023-02-16T00:35:08;119.53;;;20.50;;
67272;SDS011;54190;49.770;9.250;2023-02-16T00:37:41;77.07;;;17.47;;
67272;SDS011;54190;49.770;9.250;2023-02-16T00:40:07;141.43;;;19.70;;
67272;SDS011;54190;49.770;9.250;2023-02-16T00:42:33;121.07;;;19.53;;
67272;SDS011;54190;49.770;9.250;2023-02-16T00:44:59;84.30;;;18.97;;
67272;SDS011;54190;49.770;9.250;2023-02-16T00:47:27;93.67;;;18.60;;
67272;SDS011;54190;49.770;9.250;2023-02-16T00:50:02;110.17;;;18.43;;
67272;SDS011;54190;49.770;9.250;2023-02-16T00:52:48;76.40;;;19.40;;
67272;SDS011;54190;49.770;9.250;2023-02-16T00:55:15;179.87;;;21.30;;
67272;SDS011;54190;49.770;9.250;2023-02-16T00:57:56;155.07;;;19.20;;
67272;SDS011;54190;49.770;9.250;2023-02-16T01:00:35;128.50;;;18.30;;
67272;SDS011;54190;49.770;9.250;2023-02-16T01:03:06;79.67;;;17.23;;
67272;SDS011;54190;49.770;9.250;2023-02-16T01:05:37;60.43;;;16.60;;
67272;SDS011;54190;49.770;9.250;2023-02-16T01:08:05;52.07;;;15.50;;
67272;SDS011;54190;49.770;9.250;2023-02-16T01:10:55;35.33;;;15.20;;
67272;SDS011;54190;49.770;9.250;2023-02-16T01:13:25;102.63;;;18.17;;
67272;SDS011;54190;49.770;9.250;2023-02-16T01:15:53;68.67;;;17.10;;
67272;SDS011;54190;49.770;9.250;2023-02-16T01:18:19;62.60;;;18.90;;
67272;SDS011;54190;49.770;9.250;2023-02-16T01:20:46;84.20;;;18.87;;
67272;SDS011;54190;49.770;9.250;2023-02-16T01:23:12;62.30;;;16.87;;
67272;SDS011;54190;49.770;9.250;2023-02-16T01:25:39;59.20;;;17.97;;
67272;SDS011;54190;49.770;9.250;2023-02-16T01:28:15;112.67;;;19.77;;
67272;SDS011;54190;49.770;9.250;2023-02-16T01:30:46;52.23;;;18.07;;
67272;SDS011;54190;49.770;9.250;2023-02-16T01:33:12;69.93;;;18.60;;
67272;SDS011;54190;49.770;9.250;2023-02-16T01:35:38;43.20;;;16.40;;
67272;SDS011;54190;49.770;9.250;2023-02-16T01:38:04;77.00;;;16.60;;
67272;SDS011;54190;49.770;9.250;2023-02-16T01:40:54;129.53;;;20.63;;
67272;SDS011;54190;49.770;9.250;2023-02-16T01:43:23;155.03;;;19.10;;
67272;SDS011;54190;49.770;9.250;2023-02-16T01:46:01;157.53;;;19.50;;
67272;SDS011;54190;49.770;9.250;2023-02-16T01:48:40;140.13;;;18.00;;
67272;SDS011;54190;49.770;9.250;2023-02-16T01:53:54;145.73;;;19.57;;
67272;SDS011;54190;49.770;9.250;2023-02-16T01:56:58;116.20;;;16.97;;
67272;SDS011;54190;49.770;9.250;2023-02-16T02:02:15;142.13;;;17.93;;
67272;SDS011;54190;49.770;9.250;2023-02-16T02:08:01;120.80;;;18.37;;
67272;SDS011;54190;49.770;9.250;2023-02-16T02:10:34;84.60;;;19.40;;
67272;SDS011;54190;49.770;9.250;2023-02-16T02:13:43;120.10;;;19.37;;
67272;SDS011;54190;49.770;9.250;2023-02-16T02:16:21;114.20;;;16.73;;
67272;SDS011;54190;49.770;9.250;2023-02-16T02:18:49;68.80;;;16.10;;
67272;SDS011;54190;49.770;9.250;2023-02-16T02:21:22;109.23;;;19.13;;
67272;SDS011;54190;49.770;9.250;2023-02-16T02:27:26;140.43;;;19.27;;
67272;SDS011;54190;49.770;9.250;2023-02-16T02:33:02;59.07;;;16.73;;
67272;SDS011;54190;49.770;9.250;2023-02-16T02:38:14;58.60;;;16.17;;
67272;SDS011;54190;49.770;9.250;2023-02-16T02:46:28;61.40;;;16.20;;
67272;SDS011;54190;49.770;9.250;2023-02-16T02:48:57;73.97;;;17.30;;
67272;SDS011;54190;49.770;9.250;2023-02-16T02:51:23;75.30;;;18.20;;
67272;SDS011;54190;49.770;9.250;2023-02-16T02:54:11;85.60;;;16.80;;
67272;SDS011;54190;49.770;9.250;2023-02-16T02:57:19;64.33;;;16.70;;
67272;SDS011;54190;49.770;9.250;2023-02-16T03:05:43;155.00;;;19.33;;
67272;SDS011;54190;49.770;9.250;2023-02-16T03:08:14;31.00;;;15.47;;
67272;SDS011;54190;49.770;9.250;2023-02-16T03:10:49;38.37;;;15.97;;
67272;SDS011;54190;49.770;9.250;2023-02-16T03:13:38;175.07;;;18.00;;
67272;SDS011;54190;49.770;9.250;2023-02-16T03:16:09;53.47;;;16.17;;
67272;SDS011;54190;49.770;9.250;2023-02-16T03:18:38;67.10;;;16.77;;
67272;SDS011;54190;49.770;9.250;2023-02-16T03:21:26;93.40;;;17.97;;
67272;SDS011;54190;49.770;9.250;2023-02-16T03:24:12;52.73;;;16.33;;
67272;SDS011;54190;49.770;9.250;2023-02-16T03:27:01;51.87;;;16.17;;
67272;SDS011;54190;49.770;9.250;2023-02-16T03:29:47;55.17;;;15.90;;
67272;SDS011;54190;49.770;9.250;2023-02-16T03:32:15;52.80;;;16.70;;
67272;SDS011;54190;49.770;9.250;2023-02-16T03:34:41;57.83;;;17.53;;
67272;SDS011;54190;49.770;9.250;2023-02-16T03:37:07;51.93;;;16.27;;
67272;SDS011;54190;49.770;9.250;2023-02-16T03:39:33;53.80;;;16.37;;
67272;SDS011;54190;49.770;9.250;2023-02-16T03:42:22;161.93;;;17.10;;
67272;SDS011;54190;49.770;9.250;2023-02-16T03:44:49;27.17;;;15.37;;
67272;SDS011;54190;49.770;9.250;2023-02-16T03:47:15;53.20;;;16.23;;
67272;SDS011;54190;49.770;9.250;2023-02-16T03:49:41;60.17;;;14.73;;
67272;SDS011;54190;49.770;9.250;2023-02-16T03:52:07;71.80;;;17.07;;
67272;SDS011;54190;49.770;9.250;2023-02-16T03:54:32;43.27;;;17.20;;
67272;SDS011;54190;49.770;9.250;2023-02-16T03:56:58;31.10;;;15.47;;
67272;SDS011;54190;49.770;9.250;2023-02-16T03:59:24;70.03;;;15.53;;
67272;SDS011;54190;49.770;9.250;2023-02-16T04:01:50;77.23;;;16.80;;
67272;SDS011;54190;49.770;9.250;2023-02-16T04:04:16;44.27;;;15.37;;
67272;SDS011;54190;49.770;9.250;2023-02-16T04:06:41;73.57;;;16.87;;
67272;SDS011;54190;49.770;9.250;2023-02-16T04:09:07;61.87;;;16.13;;
67272;SDS011;54190;49.770;9.250;2023-02-16T04:11:32;35.53;;;16.30;;
67272;SDS011;54190;49.770;9.250;2023-02-16T04:14:17;143.60;;;17.50;;
67272;SDS011;54190;49.770;9.250;2023-02-16T04:16:43;90.17;;;16.43;;
67272;SDS011;54190;49.770;9.250;2023-02-16T04:19:10;58.40;;;16.63;;
67272;SDS011;54190;49.770;9.250;2023-02-16T04:21:35;35.23;;;15.03;;
67272;SDS011;54190;49.770;9.250;2023-02-16T04:24:01;63.73;;;15.63;;
67272;SDS011;54190;49.770;9.250;2023-02-16T04:26:30;49.20;;;15.90;;
67272;SDS011;54190;49.770;9.250;2023-02-16T04:28:56;59.73;;;16.00;;
67272;SDS011;54190;49.770;9.250;2023-02-16T04:31:21;97.93;;;15.10;;
67272;SDS011;54190;49.770;9.250;2023-02-16T04:33:47;59.17;;;14.30;;
67272;SDS011;54190;49.770;9.250;2023-02-16T04:36:13;95.47;;;16.37;;
67272;SDS011;54190;49.770;9.250;2023-02-16T04:38:38;73.97;;;15.40;;
67272;SDS011;54190;49.770;9.250;2023-02-16T04:41:04;50.53;;;14.43;;
67272;SDS011;54190;49.770;9.250;2023-02-16T04:43:29;39.07;;;14.50;;
67272;SDS011;54190;49.770;9.250;2023-02-16T04:45:56;46.13;;;13.20;;
67272;SDS011;54190;49.770;9.250;2023-02-16T04:48:22;40.93;;;15.13;;
67272;SDS011;54190;49.770;9.250;2023-02-16T04:50:48;80.03;;;14.13;;
67272;SDS011;54190;49.770;9.250;2023-02-16T04:53:14;45.00;;;13.57;;
67272;SDS011;54190;49.770;9.250;2023-02-16T04:55:44;58.97;;;13.70;;
67272;SDS011;54190;49.770;9.250;2023-02-16T04:58:13;42.73;;;14.50;;
67272;SDS011;54190;49.770;9.250;2023-02-16T05:00:39;45.37;;;13.33;;
67272;SDS011;54190;49.770;9.250;2023-02-16T05:03:05;28.57;;;13.50;;
67272;SDS011;54190;49.770;9.250;2023-02-16T05:05:31;90.53;;;14.33;;
67272;SDS011;54190;49.770;9.250;2023-02-16T05:07:59;43.03;;;12.77;;
67272;SDS011;54190;49.770;9.250;2023-02-16T05:10:25;49.13;;;13.50;;
67272;SDS011;54190;49.770;9.250;2023-02-16T05:12:51;51.53;;;14.80;;
67272;SDS011;54190;49.770;9.250;2023-02-16T05:15:35;37.47;;;14.20;;
67272;SDS011;54190;49.770;9.250;2023-02-16T05:18:01;53.20;;;13.27;;
67272;SDS011;54190;49.770;9.250;2023-02-16T05:20:27;42.77;;;13.27;;
67272;SDS011;54190;49.770;9.250;2023-02-16T05:23:11;70.57;;;15.20;;
67272;SDS011;54190;49.770;9.250;2023-02-16T05:25:37;131.33;;;16.77;;
67272;SDS011;54190;49.770;9.250;2023-02-16T05:28:02;62.80;;;15.10;;
67272;SDS011;54190;49.770;9.250;2023-02-16T05:30:28;94.77;;;16.77;;
67272;SDS011;54190;49.770;9.250;2023-02-16T05:32:54;50.40;;;14.43;;
67272;SDS011;54190;49.770;9.250;2023-02-16T05:35:20;72.23;;;15.10;;
67272;SDS011;54190;49.770;9.250;2023-02-16T05:37:45;84.13;;;15.57;;
67272;SDS011;54190;49.770;9.250;2023-02-16T05:40:11;36.17;;;14.87;;
67272;SDS011;54190;49.770;9.250;2023-02-16T05:42:37;56.57;;;14.33;;
67272;SDS011;54190;49.770;9.250;2023-02-16T05:45:02;40.60;;;14.27;;
67272;SDS011;54190;49.770;9.250;2023-02-16T05:47:28;44.80;;;14.60;;
67272;SDS011;54190;49.770;9.250;2023-02-16T05:49:54;28.93;;;14.53;;
67272;SDS011;54190;49.770;9.250;2023-02-16T05:52:19;59.37;;;16.53;;
67272;SDS011;54190;49.770;9.250;2023-02-16T05:54:45;43.33;;;17.23;;
67272;SDS011;54190;49.770;9.250;2023-02-16T05:57:11;24.90;;;14.67;;
67272;SDS011;54190;49.770;9.250;2023-02-16T05:59:36;36.43;;;15.63;;
67272;SDS011;54190;49.770;9.250;2023-02-16T06:02:02;25.87;;;14.57;;
67272;SDS011;54190;49.770;9.250;2023-02-16T06:04:27;35.33;;;15.40;;
67272;SDS011;54190;49.770;9.250;2023-02-16T06:06:53;54.70;;;15.40;;
67272;SDS011;54190;49.770;9.250;2023-02-16T06:09:19;65.33;;;27.80;;
67272;SDS011;54190;49.770;9.250;2023-02-16T06:11:45;52.50;;;16.43;;
67272;SDS011;54190;49.770;9.250;2023-02-16T06:14:14;32.63;;;13.83;;
67272;SDS011;54190;49.770;9.250;2023-02-16T06:16:42;33.73;;;15.47;;
67272;SDS011;54190;49.770;9.250;2023-02-16T06:19:09;30.30;;;14.73;;
67272;SDS011;54190;49.770;9.250;2023-02-16T06:21:35;84.83;;;17.77;;
67272;SDS011;54190;49.770;9.250;2023-02-16T06:24:01;36.83;;;15.13;;
67272;SDS011;54190;49.770;9.250;2023-02-16T06:26:27;43.57;;;16.07;;
67272;SDS011;54190;49.770;9.250;2023-02-16T06:28:53;42.63;;;14.73;;
67272;SDS011;54190;49.770;9.250;2023-02-16T06:31:19;28.73;;;14.70;;
67272;SDS011;54190;49.770;9.250;2023-02-16T06:33:45;41.27;;;16.07;;
67272;SDS011;54190;49.770;9.250;2023-02-16T06:36:12;56.50;;;14.30;;
67272;SDS011;54190;49.770;9.250;2023-02-16T06:38:38;57.87;;;14.53;;
67272;SDS011;54190;49.770;9.250;2023-02-16T06:41:04;39.43;;;14.37;;
67272;SDS011;54190;49.770;9.250;2023-02-16T06:43:29;31.93;;;13.80;;
67272;SDS011;54190;49.770;9.250;2023-02-16T06:45:55;73.00;;;14.90;;
67272;SDS011;54190;49.770;9.250;2023-02-16T06:48:21;25.90;;;12.77;;
67272;SDS011;54190;49.770;9.250;2023-02-16T06:50:46;105.77;;;16.90;;
67272;SDS011;54190;49.770;9.250;2023-02-16T06:53:12;63.97;;;15.30;;
67272;SDS011;54190;49.770;9.250;2023-02-16T06:55:38;67.37;;;15.53;;
67272;SDS011;54190;49.770;9.250;2023-02-16T06:58:04;120.17;;;15.50;;
67272;SDS011;54190;49.770;9.250;2023-02-16T07:00:34;77.23;;;17.00;;
67272;SDS011;54190;49.770;9.250;2023-02-16T07:02:59;41.53;;;14.10;;
67272;SDS011;54190;49.770;9.250;2023-02-16T07:05:26;30.53;;;15.07;;
67272;SDS011;54190;49.770;9.250;2023-02-16T07:07:51;59.20;;;14.93;;
67272;SDS011;54190;49.770;9.250;2023-02-16T07:10:17;210.10;;;19.47;;
67272;SDS011;54190;49.770;9.250;2023-02-16T07:12:44;67.63;;;14.33;;
67272;SDS011;54190;49.770;9.250;2023-02-16T07:15:10;96.53;;;15.80;;
67272;SDS011;54190;49.770;9.250;2023-02-16T07:17:36;123.00;;;16.63;;
67272;SDS011;54190;49.770;9.250;2023-02-16T07:20:02;87.30;;;16.57;;
67272;SDS011;54190;49.770;9.250;2023-02-16T07:22:29;96.30;;;17.47;;
67272;SDS011;54190;49.770;9.250;2023-02-16T07:24:55;87.70;;;15.93;;
67272;SDS011;54190;49.770;9.250;2023-02-16T07:27:22;56.53;;;14.60;;
67272;SDS011;54190;49.770;9.250;2023-02-16T07:29:49;60.70;;;14.60;;
67272;SDS011;54190;49.770;9.250;2023-02-16T07:32:14;71.20;;;14.10;;
67272;SDS011;54190;49.770;9.250;2023-02-16T07:34:40;37.17;;;13.30;;
67272;SDS011;54190;49.770;9.250;2023-02-16T07:37:05;70.90;;;14.87;;
67272;SDS011;54190;49.770;9.250;2023-02-16T07:39:31;54.97;;;14.73;;
67272;SDS011;54190;49.770;9.250;2023-02-16T07:41:57;237.23;;;18.70;;
67272;SDS011;54190;49.770;9.250;2023-02-16T07:44:24;109.53;;;16.43;;
67272;SDS011;54190;49.770;9.250;2023-02-16T07:46:50;76.60;;;16.37;;
67272;SDS011;54190;49.770;9.250;2023-02-16T07:49:15;197.27;;;17.97;;
67272;SDS011;54190;49.770;9.250;2023-02-16T07:51:41;164.47;;;17.60;;
67272;SDS011;54190;49.770;9.250;2023-02-16T07:54:07;236.73;;;20.23;;
67272;SDS011;54190;49.770;9.250;2023-02-16T07:56:33;205.27;;;19.80;;
67272;SDS011;54190;49.770;9.250;2023-02-16T07:59:00;87.17;;;16.03;;
67272;SDS011;54190;49.770;9.250;2023-02-16T08:01:26;55.70;;;17.13;;
67272;SDS011;54190;49.770;9.250;2023-02-16T08:03:54;188.57;;;20.80;;
67272;SDS011;54190;49.770;9.250;2023-02-16T08:06:21;88.63;;;16.30;;
67272;SDS011;54190;49.770;9.250;2023-02-16T08:08:47;95.73;;;17.43;;
67272;SDS011;54190;49.770;9.250;2023-02-16T08:13:44;33.30;;;17.30;;
67272;SDS011;54190;49.770;9.250;2023-02-16T08:16:11;149.60;;;19.80;;
67272;SDS011;54190;49.770;9.250;2023-02-16T08:18:44;70.37;;;19.67;;
67272;SDS011;54190;49.770;9.250;2023-02-16T08:21:13;46.63;;;17.03;;
67272;SDS011;54190;49.770;9.250;2023-02-16T08:23:45;46.97;;;16.50;;
67272;SDS011;54190;49.770;9.250;2023-02-16T08:26:16;31.30;;;15.70;;
67272;SDS011;54190;49.770;9.250;2023-02-16T08:28:43;34.20;;;15.67;;
67272;SDS011;54190;49.770;9.250;2023-02-16T08:31:11;48.37;;;16.37;;
67272;SDS011;54190;49.770;9.250;2023-02-16T08:33:41;55.10;;;16.37;;
67272;SDS011;54190;49.770;9.250;2023-02-16T08:36:14;34.57;;;16.80;;
67272;SDS011;54190;49.770;9.250;2023-02-16T08:38:41;48.97;;;17.73;;
67272;SDS011;54190;49.770;9.250;2023-02-16T08:41:07;42.43;;;15.90;;
67272;SDS011;54190;49.770;9.250;2023-02-16T08:43:33;30.20;;;15.40;;
67272;SDS011;54190;49.770;9.250;2023-02-16T08:45:59;38.93;;;16.40;;
67272;SDS011;54190;49.770;9.250;2023-02-16T08:48:25;30.70;;;15.63;;
67272;SDS011;54190;49.770;9.250;2023-02-16T08:50:52;25.60;;;15.53;;
67272;SDS011;54190;49.770;9.250;2023-02-16T08:53:21;54.97;;;16.30;;
67272;SDS011;54190;49.770;9.250;2023-02-16T08:55:53;32.90;;;16.70;;
67272;SDS011;54190;49.770;9.250;2023-02-16T08:58:20;33.70;;;16.70;;
67272;SDS011;54190;49.770;9.250;2023-02-16T09:00:46;29.63;;;17.53;;
67272;SDS011;54190;49.770;9.250;2023-02-16T09:03:13;35.10;;;18.07;;
67272;SDS011;54190;49.770;9.250;2023-02-16T09:05:40;25.63;;;17.13;;
67272;SDS011;54190;49.770;9.250;2023-02-16T09:08:06;28.60;;;16.63;;
67272;SDS011;54190;49.770;9.250;2023-02-16T09:10:31;37.20;;;17.90;;
67272;SDS011;54190;49.770;9.250;2023-02-16T09:12:57;27.47;;;16.20;;
67272;SDS011;54190;49.770;9.250;2023-02-16T09:15:23;39.87;;;22.67;;
67272;SDS011;54190;49.770;9.250;2023-02-16T09:17:48;66.17;;;18.90;;
67272;SDS011;54190;49.770;9.250;2023-02-16T09:20:14;92.93;;;18.93;;
67272;SDS011;54190;49.770;9.250;2023-02-16T09:22:42;53.17;;;17.07;;
67272;SDS011;54190;49.770;9.250;2023-02-16T09:25:08;81.23;;;18.97;;
67272;SDS011;54190;49.770;9.250;2023-02-16T09:27:35;86.73;;;20.80;;
67272;SDS011;54190;49.770;9.250;2023-02-16T09:30:01;37.00;;;19.90;;
67272;SDS011;54190;49.770;9.250;2023-02-16T09:32:28;35.87;;;18.70;;
67272;SDS011;54190;49.770;9.250;2023-02-16T09:34:54;31.30;;;18.77;;
67272;SDS011;54190;49.770;9.250;2023-02-16T09:37:20;31.00;;;19.30;;
67272;SDS011;54190;49.770;9.250;2023-02-16T09:39:46;33.57;;;19.27;;
67272;SDS011;54190;49.770;9.250;2023-02-16T09:44:54;31.73;;;18.10;;
67272;SDS011;54190;49.770;9.250;2023-02-16T09:47:42;33.07;;;20.03;;
67272;SDS011;54190;49.770;9.250;2023-02-16T09:50:12;33.47;;;19.43;;
67272;SDS011;54190;49.770;9.250;2023-02-16T09:52:40;32.03;;;19.53;;
67272;SDS011;54190;49.770;9.250;2023-02-16T09:55:14;35.70;;;20.30;;
67272;SDS011;54190;49.770;9.250;2023-02-16T09:57:47;35.70;;;20.43;;
67272;SDS011;54190;49.770;9.250;2023-02-16T10:06:20;41.60;;;21.07;;
67272;SDS011;54190;49.770;9.250;2023-02-16T10:09:08;36.47;;;20.53;;
67272;SDS011;54190;49.770;9.250;2023-02-16T10:11:41;39.43;;;22.27;;
67272;SDS011;54190;49.770;9.250;2023-02-16T10:27:53;39.87;;;22.73;;
67272;SDS011;54190;49.770;9.250;2023-02-16T10:30:29;37.33;;;22.47;;
67272;SDS011;54190;49.770;9.250;2023-02-16T10:32:58;37.07;;;21.43;;
67272;SDS011;54190;49.770;9.250;2023-02-16T10:35:52;34.20;;;20.67;;
67272;SDS011;54190;49.770;9.250;2023-02-16T10:38:33;37.37;;;21.10;;
67272;SDS011;54190;49.770;9.250;2023-02-16T10:43:53;37.60;;;20.40;;
67272;SDS011;54190;49.770;9.250;2023-02-16T10:46:27;36.37;;;20.97;;
67272;SDS011;54190;49.770;9.250;2023-02-16T10:48:58;36.03;;;20.70;;
67272;SDS011;54190;49.770;9.250;2023-02-16T10:51:27;32.90;;;19.43;;
67272;SDS011;54190;49.770;9.250;2023-02-16T10:54:02;36.43;;;22.00;;
67272;SDS011;54190;49.770;9.250;2023-02-16T10:59:00;32.60;;;21.67;;
67272;SDS011;54190;49.770;9.250;2023-02-16T11:01:36;37.13;;;21.37;;
67272;SDS011;54190;49.770;9.250;2023-02-16T11:04:03;33.63;;;19.87;;
67272;SDS011;54190;49.770;9.250;2023-02-16T11:06:29;35.50;;;19.10;;
67272;SDS011;54190;49.770;9.250;2023-02-16T11:08:56;31.70;;;19.47;;
67272;SDS011;54190;49.770;9.250;2023-02-16T11:11:43;34.83;;;20.13;;
67272;SDS011;54190;49.770;9.250;2023-02-16T11:14:22;26.23;;;18.20;;
67272;SDS011;54190;49.770;9.250;2023-02-16T11:17:03;30.67;;;17.40;;
67272;SDS011;54190;49.770;9.250;2023-02-16T11:19:31;25.33;;;17.27;;
67272;SDS011;54190;49.770;9.250;2023-02-16T11:21:58;25.63;;;18.23;;
67272;SDS011;54190;49.770;9.250;2023-02-16T11:24:25;25.97;;;18.07;;
67272;SDS011;54190;49.770;9.250;2023-02-16T11:26:58;25.23;;;17.00;;
67272;SDS011;54190;49.770;9.250;2023-02-16T11:29:29;24.27;;;17.30;;
67272;SDS011;54190;49.770;9.250;2023-02-16T11:31:55;24.90;;;17.10;;
67272;SDS011;54190;49.770;9.250;2023-02-16T11:34:29;24.93;;;17.30;;
67272;SDS011;54190;49.770;9.250;2023-02-16T11:37:02;27.60;;;17.83;;
67272;SDS011;54190;49.770;9.250;2023-02-16T11:39:46;24.90;;;17.43;;
67272;SDS011;54190;49.770;9.250;2023-02-16T11:42:34;21.63;;;16.20;;
67272;SDS011;54190;49.770;9.250;2023-02-16T11:45:04;29.77;;;20.20;;
67272;SDS011;54190;49.770;9.250;2023-02-16T11:47:36;28.10;;;18.20;;
67272;SDS011;54190;49.770;9.250;2023-02-16T11:50:18;27.20;;;17.90;;
67272;SDS011;54190;49.770;9.250;2023-02-16T11:52:51;23.77;;;17.40;;
67272;SDS011;54190;49.770;9.250;2023-02-16T11:57:51;26.00;;;18.23;;
67272;SDS011;54190;49.770;9.250;2023-02-16T12:00:21;26.50;;;18.37;;
67272;SDS011;54190;49.770;9.250;2023-02-16T12:16:59;24.50;;;17.90;;
67272;SDS011;54190;49.770;9.250;2023-02-16T12:19:52;24.60;;;17.40;;
67272;SDS011;54190;49.770;9.250;2023-02-16T12:23:19;29.07;;;19.50;;
67272;SDS011;54190;49.770;9.250;2023-02-16T12:25:36;25.23;;;18.90;;
67272;SDS011;54190;49.770;9.250;2023-02-16T12:36:45;25.50;;;17.80;;
67272;SDS011;54190;49.770;9.250;2023-02-16T12:44:51;24.97;;;18.10;;
67272;SDS011;54190;49.770;9.250;2023-02-16T12:52:57;26.00;;;18.17;;
67272;SDS011;54190;49.770;9.250;2023-02-16T12:55:41;28.97;;;19.43;;
67272;SDS011;54190;49.770;9.250;2023-02-16T12:58:16;25.47;;;18.23;;
67272;SDS011;54190;49.770;9.250;2023-02-16T13:00:51;27.07;;;17.90;;
67272;SDS011;54190;49.770;9.250;2023-02-16T13:03:26;27.90;;;18.80;;
67272;SDS011;54190;49.770;9.250;2023-02-16T13:14:16;25.10;;;18.40;;
67272;SDS011;54190;49.770;9.250;2023-02-16T13:16:55;26.57;;;19.07;;
67272;SDS011;54190;49.770;9.250;2023-02-16T13:19:24;27.50;;;19.23;;
67272;SDS011;54190;49.770;9.250;2023-02-16T13:24:44;39.30;;;24.70;;
67272;SDS011;54190;49.770;9.250;2023-02-16T13:27:31;26.43;;;18.80;;
67272;SDS011;54190;49.770;9.250;2023-02-16T13:39:10;21.50;;;15.77;;
67272;SDS011;54190;49.770;9.250;2023-02-16T13:41:54;19.43;;;15.77;;
67272;SDS011;54190;49.770;9.250;2023-02-16T13:44:33;22.27;;;16.27;;
67272;SDS011;54190;49.770;9.250;2023-02-16T13:47:05;24.20;;;18.17;;
67272;SDS011;54190;49.770;9.250;2023-02-16T13:49:36;26.60;;;17.60;;
67272;SDS011;54190;49.770;9.250;2023-02-16T13:52:07;23.30;;;18.10;;
67272;SDS011;54190;49.770;9.250;2023-02-16T13:54:52;25.27;;;17.90;;
67272;SDS011;54190;49.770;9.250;2023-02-16T14:05:35;22.50;;;15.60;;
67272;SDS011;54190;49.770;9.250;2023-02-16T14:08:23;24.37;;;17.70;;
67272;SDS011;54190;49.770;9.250;2023-02-16T14:13:21;27.30;;;17.87;;
67272;SDS011;54190;49.770;9.250;2023-02-16T14:15:53;24.27;;;17.33;;
67272;SDS011;54190;49.770;9.250;2023-02-16T14:18:30;23.03;;;17.07;;
67272;SDS011;54190;49.770;9.250;2023-02-16T14:21:14;23.00;;;17.13;;
67272;SDS011;54190;49.770;9.250;2023-02-16T14:23:44;23.90;;;16.33;;
67272;SDS011;54190;49.770;9.250;2023-02-16T14:26:18;24.10;;;16.60;;
67272;SDS011;54190;49.770;9.250;2023-02-16T14:31:27;26.37;;;17.07;;
67272;SDS011;54190;49.770;9.250;2023-02-16T14:34:00;22.70;;;16.97;;
67272;SDS011;54190;49.770;9.250;2023-02-16T14:37:05;21.33;;;16.60;;
67272;SDS011;54190;49.770;9.250;2023-02-16T14:39:35;25.90;;;16.87;;
67272;SDS011;54190;49.770;9.250;2023-02-16T14:42:11;25.57;;;17.47;;
67272;SDS011;54190;49.770;9.250;2023-02-16T14:47:34;26.23;;;17.33;;
67272;SDS011;54190;49.770;9.250;2023-02-16T14:53:16;25.03;;;16.20;;
67272;SDS011;54190;49.770;9.250;2023-02-16T14:58:50;22.10;;;15.43;;
67272;SDS011;54190;49.770;9.250;2023-02-16T15:01:22;25.37;;;16.50;;
67272;SDS011;54190;49.770;9.250;2023-02-16T15:03:49;23.60;;;17.07;;
67272;SDS011;54190;49.770;9.250;2023-02-16T15:08:43;24.10;;;17.63;;
67272;SDS011;54190;49.770;9.250;2023-02-16T15:11:19;25.47;;;17.23;;
67272;SDS011;54190;49.770;9.250;2023-02-16T15:13:50;25.47;;;17.80;;
67272;SDS011;54190;49.770;9.250;2023-02-16T15:16:17;27.13;;;18.33;;
67272;SDS011;54190;49.770;9.250;2023-02-16T15:18:46;26.70;;;17.47;;
67272;SDS011;54190;49.770;9.250;2023-02-16T15:21:18;31.17;;;18.53;;
67272;SDS011;54190;49.770;9.250;2023-02-16T15:23:55;26.57;;;18.30;;
67272;SDS011;54190;49.770;9.250;2023-02-16T15:26:23;29.00;;;18.73;;
67272;SDS011;54190;49.770;9.250;2023-02-16T15:28:59;26.33;;;18.50;;
67272;SDS011;54190;49.770;9.250;2023-02-16T15:31:33;25.90;;;17.27;;
67272;SDS011;54190;49.770;9.250;2023-02-16T15:34:02;27.40;;;18.80;;
67272;SDS011;54190;49.770;9.250;2023-02-16T15:36:33;24.70;;;17.67;;
67272;SDS011;54190;49.770;9.250;2023-02-16T15:41:38;29.00;;;18.40;;
67272;SDS011;54190;49.770;9.250;2023-02-16T15:49:41;35.60;;;22.80;;
67272;SDS011;54190;49.770;9.250;2023-02-16T15:52:16;26.23;;;19.40;;
67272;SDS011;54190;49.770;9.250;2023-02-16T15:54:45;28.13;;;19.53;;
67272;SDS011;54190;49.770;9.250;2023-02-16T15:57:17;33.57;;;21.10;;
67272;SDS011;54190;49.770;9.250;2023-02-16T15:59:46;26.93;;;19.13;;
67272;SDS011;54190;49.770;9.250;2023-02-16T16:02:15;29.80;;;20.70;;
67272;SDS011;54190;49.770;9.250;2023-02-16T16:04:42;28.00;;;20.93;;
67272;SDS011;54190;49.770;9.250;2023-02-16T16:07:12;29.73;;;20.90;;
67272;SDS011;54190;49.770;9.250;2023-02-16T16:09:40;35.63;;;25.40;;
67272;SDS011;54190;49.770;9.250;2023-02-16T16:12:08;36.70;;;26.37;;
67272;SDS011;54190;49.770;9.250;2023-02-16T16:14:38;34.13;;;23.83;;
67272;SDS011;54190;49.770;9.250;2023-02-16T16:17:13;29.30;;;20.50;;
67272;SDS011;54190;49.770;9.250;2023-02-16T16:19:41;28.17;;;20.83;;
67272;SDS011;54190;49.770;9.250;2023-02-16T16:24:50;26.83;;;19.30;;
67272;SDS011;54190;49.770;9.250;2023-02-16T16:27:25;30.50;;;19.60;;
67272;SDS011;54190;49.770;9.250;2023-02-16T16:33:04;28.60;;;20.37;;
67272;SDS011;54190;49.770;9.250;2023-02-16T16:35:46;28.83;;;20.10;;
67272;SDS011;54190;49.770;9.250;2023-02-16T16:38:21;36.37;;;24.20;;
67272;SDS011;54190;49.770;9.250;2023-02-16T16:40:58;31.90;;;21.87;;
67272;SDS011;54190;49.770;9.250;2023-02-16T16:43:34;33.57;;;21.00;;
67272;SDS011;54190;49.770;9.250;2023-02-16T16:46:22;29.13;;;19.13;;
67272;SDS011;54190;49.770;9.250;2023-02-16T16:48:51;30.43;;;20.23;;
67272;SDS011;54190;49.770;9.250;2023-02-16T16:51:41;29.03;;;20.43;;
67272;SDS011;54190;49.770;9.250;2023-02-16T16:54:11;31.30;;;20.40;;
67272;SDS011;54190;49.770;9.250;2023-02-16T16:56:55;30.10;;;19.07;;
67272;SDS011;54190;49.770;9.250;2023-02-16T16:59:21;28.60;;;20.97;;
67272;SDS011;54190;49.770;9.250;2023-02-16T17:01:46;28.50;;;20.10;;
67272;SDS011;54190;49.770;9.250;2023-02-16T17:04:14;32.30;;;19.90;;
67272;SDS011;54190;49.770;9.250;2023-02-16T17:06:41;32.47;;;21.10;;
67272;SDS011;54190;49.770;9.250;2023-02-16T17:09:07;32.37;;;21.27;;
67272;SDS011;54190;49.770;9.250;2023-02-16T17:11:33;32.90;;;23.70;;
67272;SDS011;54190;49.770;9.250;2023-02-16T17:14:06;33.83;;;22.43;;
67272;SDS011;54190;49.770;9.250;2023-02-16T17:16:35;30.57;;;20.80;;
67272;SDS011;54190;49.770;9.250;2023-02-16T17:19:04;32.70;;;21.70;;